Aviation Digital Data Service (ADDS)

Output produced by METARs form (0407 UTC 26 April 2019)
found at http://www.aviationweather.gov/metar/data/
 
Forecast for: VIDP (INDIRA GANDHI/DE, IN)
Text: TAF VIDP 260200Z 2603/2612 29005KT 2000 HZ NSC
Forecast period: 0300 to 0800 UTC 26 April 2019
Forecast type: FROM: standard forecast or significant change
Winds: from the WNW (290 degrees) at 6 MPH (5 knots; 2.6 m/s)
Visibility: 1.24 miles (2.00 km)
Ceiling: unknown
Clouds: missing
Weather: HZ  (haze)
Text: BECMG 2608/2610 32010G25KT 3500 BLDU SCT100
Forecast period: 0800 to 1200 UTC 26 April 2019
Forecast type: BECOMING: Conditions expected to become as follows by 1000 UTC 26 April 2019
Winds: from the NW (320 degrees) at 12 MPH (10 knots; 5.1 m/s)
gusting to 29 MPH (25 knots; 12.9 m/s)
Visibility: 2.17 miles (3.49 km)
Ceiling: at least 12,000 feet AGL
Clouds: scattered clouds at 10000 feet AGL
Weather: BLDU  (blowing dust)